PSM weather

Portsmouth International at Pease Airport
Portsmouth, New Hampshire, United States

Public forecast

Using degrees Fahrenheit for public forecast. Weather courtesy of forecast.io.

Current aviation weather report (METAR) for Portsmouth International at Pease Airport

Retrieved 2019/10/16 21:56 UTC (59 minutes ago):

KPSM 162156Z 12012G18KT 10SM SCT020 OVC030 13/08 A2982 RMK AO2A SLP101 T01290082

Aviation forecast (TAF) for Portsmouth International at Pease Airport

Retrieved 2019/10/16 18:22 UTC (5 hours ago):

TAF KPSM 161720Z 1618/1718 14009G18KT P6SM SCT020 FM170000 09012G20KT P6SM BKN020 OVC030 FM170200 08020G30KT 3SM RA OVC007 FM170600 07025G45KT 3SM RA OVC006 WS020/10060KT FM171200 18012G21KT 6SM -RA OVC015